Portada
METAR-TAF:

METAR-TAF

Aeroports :

Lanzhou, Xina

latitud: 36-02N, longitud: 103-52E, altitud: 1518 m

Observació

L'informe es va fer fa 35 minuts, a les 20:00 UTC
Vent 2 kt del Nord-Oest
Temperatura 13°C
Humitat 94%
Pressió 1017 hPa
Visibilitat 10 km o més
sense núvols per sota de 1500 mi sense presència de cumulonimbus.

METAR: ZLLL 192000Z 32001MPS CAVOK 13/12 Q1017 NOSIG

Hora: 04:35 (20:35 UTC)

Pronòstic

L'informe es va fer fa 5 hores i 24 minuts, a les 15:11 UTC
Pronòstic vàlid del 19 a les 18 UTC al 20 a les 18 UTC
Vent 6 kt del Nord
Visibilitat: 6000 m
Núvols disperses a una alçada de 4000 ft
Temporalment
l' 20 a les 12 UTC al 20 a les 18 UTC
Escasses núvols a una alçada de 3300 ft, Cumulonimbus.
Núvols disperses a una alçada de 4000 ft

TAF: ZLLL 191511Z 1918/2018 35003MPS 6000 SCT040 TX27/2009Z TN12/1922Z TEMPO 2012/2018 FEW033CB SCT040

Observacions i pronòstics meteorològics de més de 4000 aeroports (METAR i TAF).

Les estacions disponibles són els punts grocs i vermells al mapa.

Posi el ratolí al punt desitjat per veure el nom de l'estació.

Feu clic per veure les observacions i els pronòstics meteorològics.

Per canviar el mapa: feu clic els botons verds amb una creu de color negre per apropar; al botó verd amb un guió per allunyar la imatge; o en les fletxes verdes per a mapes adjacents.


METAR-TAF: